sensor_id;sensor_type;location;lat;lon;timestamp;temperature;humidity
63371;DHT22;72561;48.336;14.472;2023-10-19T00:01:10;24.40;55.20
63371;DHT22;72561;48.336;14.472;2023-10-19T00:04:31;24.40;55.80
63371;DHT22;72561;48.336;14.472;2023-10-19T00:09:48;24.40;55.20
63371;DHT22;72561;48.336;14.472;2023-10-19T00:13:10;24.40;55.80
63371;DHT22;72561;48.336;14.472;2023-10-19T00:16:32;24.50;55.90
63371;DHT22;72561;48.336;14.472;2023-10-19T00:19:53;24.40;55.80
63371;DHT22;72561;48.336;14.472;2023-10-19T00:24:52;24.40;55.20
63371;DHT22;72561;48.336;14.472;2023-10-19T00:28:13;24.40;55.80
63371;DHT22;72561;48.336;14.472;2023-10-19T00:31:34;24.40;55.80
63371;DHT22;72561;48.336;14.472;2023-10-19T00:34:55;24.40;55.80
63371;DHT22;72561;48.336;14.472;2023-10-19T00:44:17;24.40;55.20
63371;DHT22;72561;48.336;14.472;2023-10-19T00:47:38;24.40;55.80
63371;DHT22;72561;48.336;14.472;2023-10-19T00:50:59;24.30;55.70
63371;DHT22;72561;48.336;14.472;2023-10-19T00:54:22;24.40;55.80
63371;DHT22;72561;48.336;14.472;2023-10-19T00:57:45;24.40;55.80
63371;DHT22;72561;48.336;14.472;2023-10-19T01:01:08;24.30;55.80
63371;DHT22;72561;48.336;14.472;2023-10-19T01:04:29;24.40;55.80
63371;DHT22;72561;48.336;14.472;2023-10-19T01:07:50;24.30;55.80
63371;DHT22;72561;48.336;14.472;2023-10-19T01:11:12;24.40;55.80
63371;DHT22;72561;48.336;14.472;2023-10-19T01:14:34;24.30;55.70
63371;DHT22;72561;48.336;14.472;2023-10-19T01:17:57;24.40;55.70
63371;DHT22;72561;48.336;14.472;2023-10-19T01:21:33;24.30;55.10
63371;DHT22;72561;48.336;14.472;2023-10-19T01:24:56;24.30;55.70
63371;DHT22;72561;48.336;14.472;2023-10-19T01:28:17;24.30;55.70
63371;DHT22;72561;48.336;14.472;2023-10-19T01:34:11;24.30;55.10
63371;DHT22;72561;48.336;14.472;2023-10-19T01:37:32;24.30;55.70
63371;DHT22;72561;48.336;14.472;2023-10-19T01:42:36;24.30;55.10
63371;DHT22;72561;48.336;14.472;2023-10-19T01:45:57;24.30;56.30
63371;DHT22;72561;48.336;14.472;2023-10-19T01:49:18;24.30;55.70
63371;DHT22;72561;48.336;14.472;2023-10-19T01:53:58;24.30;55.10
63371;DHT22;72561;48.336;14.472;2023-10-19T01:57:19;24.30;55.70
63371;DHT22;72561;48.336;14.472;2023-10-19T02:00:40;24.30;55.70
63371;DHT22;72561;48.336;14.472;2023-10-19T02:04:02;24.30;55.70
63371;DHT22;72561;48.336;14.472;2023-10-19T02:07:55;24.30;55.20
63371;DHT22;72561;48.336;14.472;2023-10-19T02:11:16;24.30;55.70
63371;DHT22;72561;48.336;14.472;2023-10-19T02:14:40;24.20;55.70
63371;DHT22;72561;48.336;14.472;2023-10-19T02:19:57;24.30;55.20
63371;DHT22;72561;48.336;14.472;2023-10-19T02:23:18;24.30;55.70
63371;DHT22;72561;48.336;14.472;2023-10-19T02:26:50;24.30;55.70
63371;DHT22;72561;48.336;14.472;2023-10-19T02:30:12;24.30;55.70
63371;DHT22;72561;48.336;14.472;2023-10-19T02:33:34;24.30;55.70
63371;DHT22;72561;48.336;14.472;2023-10-19T02:36:56;24.20;55.70
63371;DHT22;72561;48.336;14.472;2023-10-19T02:40:17;24.30;55.70
63371;DHT22;72561;48.336;14.472;2023-10-19T02:43:48;24.20;55.10
63371;DHT22;72561;48.336;14.472;2023-10-19T02:47:09;24.30;55.70
63371;DHT22;72561;48.336;14.472;2023-10-19T02:50:30;24.20;55.70
63371;DHT22;72561;48.336;14.472;2023-10-19T02:53:51;24.20;55.70
63371;DHT22;72561;48.336;14.472;2023-10-19T02:59:37;24.20;55.10
63371;DHT22;72561;48.336;14.472;2023-10-19T03:02:58;24.30;55.70
63371;DHT22;72561;48.336;14.472;2023-10-19T03:06:19;24.20;55.70
63371;DHT22;72561;48.336;14.472;2023-10-19T03:09:41;24.20;55.60
63371;DHT22;72561;48.336;14.472;2023-10-19T03:13:02;24.20;55.60
63371;DHT22;72561;48.336;14.472;2023-10-19T03:16:24;24.20;55.60
63371;DHT22;72561;48.336;14.472;2023-10-19T03:19:46;24.20;55.60
63371;DHT22;72561;48.336;14.472;2023-10-19T03:23:07;24.20;55.70
63371;DHT22;72561;48.336;14.472;2023-10-19T03:26:28;24.20;56.30
63371;DHT22;72561;48.336;14.472;2023-10-19T03:31:26;24.20;55.10
63371;DHT22;72561;48.336;14.472;2023-10-19T03:34:47;24.20;55.70
63371;DHT22;72561;48.336;14.472;2023-10-19T03:38:08;24.20;55.60
63371;DHT22;72561;48.336;14.472;2023-10-19T03:41:30;24.20;55.70
63371;DHT22;72561;48.336;14.472;2023-10-19T03:44:50;24.20;55.70
63371;DHT22;72561;48.336;14.472;2023-10-19T03:48:13;24.20;55.70
63371;DHT22;72561;48.336;14.472;2023-10-19T03:51:34;24.20;55.70
63371;DHT22;72561;48.336;14.472;2023-10-19T03:54:55;24.20;55.70
63371;DHT22;72561;48.336;14.472;2023-10-19T03:58:52;24.20;55.10
63371;DHT22;72561;48.336;14.472;2023-10-19T04:02:42;24.20;55.20
63371;DHT22;72561;48.336;14.472;2023-10-19T04:06:04;24.20;55.80
63371;DHT22;72561;48.336;14.472;2023-10-19T04:09:25;24.20;55.80
63371;DHT22;72561;48.336;14.472;2023-10-19T04:12:46;24.20;55.70
63371;DHT22;72561;48.336;14.472;2023-10-19T04:16:08;24.20;55.80
63371;DHT22;72561;48.336;14.472;2023-10-19T04:19:32;24.30;55.80
63371;DHT22;72561;48.336;14.472;2023-10-19T04:22:54;24.20;55.80
63371;DHT22;72561;48.336;14.472;2023-10-19T04:26:18;24.20;55.80
63371;DHT22;72561;48.336;14.472;2023-10-19T04:29:40;24.30;56.60
63371;DHT22;72561;48.336;14.472;2023-10-19T04:33:01;24.30;55.80
63371;DHT22;72561;48.336;14.472;2023-10-19T04:37:01;24.30;55.20
63371;DHT22;72561;48.336;14.472;2023-10-19T04:42:05;24.30;55.20
63371;DHT22;72561;48.336;14.472;2023-10-19T04:45:26;24.30;55.70
63371;DHT22;72561;48.336;14.472;2023-10-19T04:48:47;24.30;55.70
63371;DHT22;72561;48.336;14.472;2023-10-19T04:55:00;24.30;55.20
63371;DHT22;72561;48.336;14.472;2023-10-19T04:58:21;24.30;55.60
63371;DHT22;72561;48.336;14.472;2023-10-19T05:03:05;24.30;55.10
63371;DHT22;72561;48.336;14.472;2023-10-19T05:06:26;24.30;55.60
63371;DHT22;72561;48.336;14.472;2023-10-19T05:09:47;24.20;55.50
63371;DHT22;72561;48.336;14.472;2023-10-19T05:13:08;24.20;55.40
63371;DHT22;72561;48.336;14.472;2023-10-19T05:16:29;24.20;55.40
63371;DHT22;72561;48.336;14.472;2023-10-19T05:19:52;24.20;55.40
63371;DHT22;72561;48.336;14.472;2023-10-19T05:23:13;24.20;55.40
63371;DHT22;72561;48.336;14.472;2023-10-19T05:26:34;24.20;55.40
63371;DHT22;72561;48.336;14.472;2023-10-19T05:29:55;24.20;55.30
63371;DHT22;72561;48.336;14.472;2023-10-19T05:33:16;24.20;55.40
63371;DHT22;72561;48.336;14.472;2023-10-19T05:36:38;24.20;55.30
63371;DHT22;72561;48.336;14.472;2023-10-19T05:39:59;24.20;55.30
63371;DHT22;72561;48.336;14.472;2023-10-19T05:43:20;24.20;55.30
63371;DHT22;72561;48.336;14.472;2023-10-19T05:46:41;24.20;55.30
63371;DHT22;72561;48.336;14.472;2023-10-19T05:50:03;24.20;55.20
63371;DHT22;72561;48.336;14.472;2023-10-19T05:53:25;24.20;55.20
63371;DHT22;72561;48.336;14.472;2023-10-19T06:01:04;24.10;54.70
63371;DHT22;72561;48.336;14.472;2023-10-19T06:04:25;24.20;55.20
63371;DHT22;72561;48.336;14.472;2023-10-19T06:11:34;24.10;54.60
63371;DHT22;72561;48.336;14.472;2023-10-19T06:14:55;24.10;55.10
63371;DHT22;72561;48.336;14.472;2023-10-19T06:18:16;24.10;55.00
63371;DHT22;72561;48.336;14.472;2023-10-19T06:21:37;24.10;55.00
63371;DHT22;72561;48.336;14.472;2023-10-19T06:27:16;24.10;54.60
63371;DHT22;72561;48.336;14.472;2023-10-19T06:30:37;24.10;55.00
63371;DHT22;72561;48.336;14.472;2023-10-19T06:34:38;24.10;54.50
63371;DHT22;72561;48.336;14.472;2023-10-19T06:38:00;24.10;55.10
63371;DHT22;72561;48.336;14.472;2023-10-19T06:41:21;24.10;55.10
63371;DHT22;72561;48.336;14.472;2023-10-19T06:44:42;24.00;55.10
63371;DHT22;72561;48.336;14.472;2023-10-19T06:48:04;24.10;55.10
63371;DHT22;72561;48.336;14.472;2023-10-19T06:53:34;24.10;54.60
63371;DHT22;72561;48.336;14.472;2023-10-19T06:56:55;24.00;55.20
63371;DHT22;72561;48.336;14.472;2023-10-19T07:03:23;24.10;54.70
63371;DHT22;72561;48.336;14.472;2023-10-19T07:09:06;24.00;54.60
63371;DHT22;72561;48.336;14.472;2023-10-19T07:15:29;24.00;54.60
63371;DHT22;72561;48.336;14.472;2023-10-19T07:18:50;24.00;55.20
63371;DHT22;72561;48.336;14.472;2023-10-19T07:22:11;24.00;55.20
63371;DHT22;72561;48.336;14.472;2023-10-19T07:25:34;24.00;55.30
63371;DHT22;72561;48.336;14.472;2023-10-19T07:28:55;24.00;55.30
63371;DHT22;72561;48.336;14.472;2023-10-19T07:32:17;24.00;55.30
63371;DHT22;72561;48.336;14.472;2023-10-19T07:35:38;24.00;55.90
63371;DHT22;72561;48.336;14.472;2023-10-19T07:39:00;24.00;55.30
63371;DHT22;72561;48.336;14.472;2023-10-19T07:42:21;24.00;55.30
63371;DHT22;72561;48.336;14.472;2023-10-19T07:45:42;24.00;55.30
63371;DHT22;72561;48.336;14.472;2023-10-19T07:49:05;24.00;55.30
63371;DHT22;72561;48.336;14.472;2023-10-19T07:52:26;24.00;55.30
63371;DHT22;72561;48.336;14.472;2023-10-19T07:55:47;24.00;55.30
63371;DHT22;72561;48.336;14.472;2023-10-19T07:59:08;24.00;55.30
63371;DHT22;72561;48.336;14.472;2023-10-19T08:02:29;23.90;55.20
63371;DHT22;72561;48.336;14.472;2023-10-19T08:05:51;24.00;55.30
63371;DHT22;72561;48.336;14.472;2023-10-19T08:10:44;24.00;54.70
63371;DHT22;72561;48.336;14.472;2023-10-19T08:14:05;23.90;55.20
63371;DHT22;72561;48.336;14.472;2023-10-19T08:22:17;23.90;54.70
63371;DHT22;72561;48.336;14.472;2023-10-19T08:25:38;24.00;55.20
63371;DHT22;72561;48.336;14.472;2023-10-19T08:28:59;24.00;55.20
63371;DHT22;72561;48.336;14.472;2023-10-19T08:32:20;24.00;55.30
63371;DHT22;72561;48.336;14.472;2023-10-19T08:38:07;23.90;54.70
63371;DHT22;72561;48.336;14.472;2023-10-19T08:41:28;24.00;55.30
63371;DHT22;72561;48.336;14.472;2023-10-19T08:46:33;24.00;54.80
63371;DHT22;72561;48.336;14.472;2023-10-19T08:49:54;23.90;55.30
63371;DHT22;72561;48.336;14.472;2023-10-19T08:53:15;24.00;55.30
63371;DHT22;72561;48.336;14.472;2023-10-19T08:56:38;23.90;55.30
63371;DHT22;72561;48.336;14.472;2023-10-19T08:59:59;23.90;55.30
63371;DHT22;72561;48.336;14.472;2023-10-19T09:03:21;24.00;55.40
63371;DHT22;72561;48.336;14.472;2023-10-19T09:09:33;24.00;54.80
63371;DHT22;72561;48.336;14.472;2023-10-19T09:13:00;23.90;55.30
63371;DHT22;72561;48.336;14.472;2023-10-19T09:16:22;24.00;55.40
63371;DHT22;72561;48.336;14.472;2023-10-19T09:19:45;24.00;55.40
63371;DHT22;72561;48.336;14.472;2023-10-19T09:23:07;24.00;55.40
63371;DHT22;72561;48.336;14.472;2023-10-19T09:30:53;24.00;54.80
63371;DHT22;72561;48.336;14.472;2023-10-19T09:34:14;23.90;55.30
63371;DHT22;72561;48.336;14.472;2023-10-19T09:37:36;24.00;55.40
63371;DHT22;72561;48.336;14.472;2023-10-19T09:40:57;24.00;55.40
63371;DHT22;72561;48.336;14.472;2023-10-19T09:44:21;24.00;55.40
63371;DHT22;72561;48.336;14.472;2023-10-19T09:47:49;24.00;55.40
63371;DHT22;72561;48.336;14.472;2023-10-19T09:51:30;24.00;54.80
63371;DHT22;72561;48.336;14.472;2023-10-19T09:54:57;23.90;55.40
63371;DHT22;72561;48.336;14.472;2023-10-19T09:58:24;24.00;55.40
63371;DHT22;72561;48.336;14.472;2023-10-19T10:04:32;24.00;54.90
63371;DHT22;72561;48.336;14.472;2023-10-19T10:11:51;24.00;54.90
63371;DHT22;72561;48.336;14.472;2023-10-19T10:15:13;24.00;55.50
63371;DHT22;72561;48.336;14.472;2023-10-19T10:18:35;24.00;55.50
63371;DHT22;72561;48.336;14.472;2023-10-19T10:26:15;24.00;54.90
63371;DHT22;72561;48.336;14.472;2023-10-19T10:29:54;24.00;55.50
63371;DHT22;72561;48.336;14.472;2023-10-19T10:33:40;24.00;55.50
63371;DHT22;72561;48.336;14.472;2023-10-19T10:37:02;24.00;55.50
63371;DHT22;72561;48.336;14.472;2023-10-19T10:40:24;24.00;55.50
63371;DHT22;72561;48.336;14.472;2023-10-19T10:43:50;24.00;55.50
63371;DHT22;72561;48.336;14.472;2023-10-19T10:47:16;24.00;55.60
63371;DHT22;72561;48.336;14.472;2023-10-19T10:50:38;24.00;55.50
63371;DHT22;72561;48.336;14.472;2023-10-19T10:56:43;24.00;55.00
63371;DHT22;72561;48.336;14.472;2023-10-19T11:00:05;24.00;55.50
63371;DHT22;72561;48.336;14.472;2023-10-19T11:04:10;24.00;54.90
63371;DHT22;72561;48.336;14.472;2023-10-19T11:07:31;24.00;55.50
63371;DHT22;72561;48.336;14.472;2023-10-19T11:10:52;24.00;55.40
63371;DHT22;72561;48.336;14.472;2023-10-19T11:14:13;23.90;55.40
63371;DHT22;72561;48.336;14.472;2023-10-19T11:17:42;24.00;55.50
63371;DHT22;72561;48.336;14.472;2023-10-19T11:21:07;24.00;55.50
63371;DHT22;72561;48.336;14.472;2023-10-19T11:24:29;24.00;55.50
63371;DHT22;72561;48.336;14.472;2023-10-19T11:30:48;24.00;55.00
63371;DHT22;72561;48.336;14.472;2023-10-19T11:34:09;24.00;55.60
63371;DHT22;72561;48.336;14.472;2023-10-19T11:37:32;24.00;55.50
63371;DHT22;72561;48.336;14.472;2023-10-19T11:41:06;24.00;55.50
63371;DHT22;72561;48.336;14.472;2023-10-19T11:44:27;24.00;55.50
63371;DHT22;72561;48.336;14.472;2023-10-19T11:47:49;24.00;55.50
63371;DHT22;72561;48.336;14.472;2023-10-19T11:51:11;24.00;55.40
63371;DHT22;72561;48.336;14.472;2023-10-19T11:54:33;24.00;55.50
63371;DHT22;72561;48.336;14.472;2023-10-19T11:57:54;24.00;55.50
63371;DHT22;72561;48.336;14.472;2023-10-19T12:01:15;24.00;55.40
63371;DHT22;72561;48.336;14.472;2023-10-19T12:04:37;24.00;55.50
63371;DHT22;72561;48.336;14.472;2023-10-19T12:07:58;24.00;55.50
63371;DHT22;72561;48.336;14.472;2023-10-19T12:12:40;24.00;54.90
63371;DHT22;72561;48.336;14.472;2023-10-19T12:16:01;24.00;55.60
63371;DHT22;72561;48.336;14.472;2023-10-19T12:21:08;24.10;55.10
63371;DHT22;72561;48.336;14.472;2023-10-19T12:24:29;24.00;55.60
63371;DHT22;72561;48.336;14.472;2023-10-19T12:29:59;24.10;55.10
63371;DHT22;72561;48.336;14.472;2023-10-19T12:33:20;24.10;55.70
63371;DHT22;72561;48.336;14.472;2023-10-19T12:36:41;24.10;55.70
63371;DHT22;72561;48.336;14.472;2023-10-19T12:40:02;24.10;55.70
63371;DHT22;72561;48.336;14.472;2023-10-19T12:43:24;24.10;55.70
63371;DHT22;72561;48.336;14.472;2023-10-19T12:46:47;24.10;55.70
63371;DHT22;72561;48.336;14.472;2023-10-19T12:50:09;24.10;55.70
63371;DHT22;72561;48.336;14.472;2023-10-19T12:53:31;24.20;55.90
63371;DHT22;72561;48.336;14.472;2023-10-19T12:56:52;24.20;55.90
63371;DHT22;72561;48.336;14.472;2023-10-19T13:00:14;24.20;55.90
63371;DHT22;72561;48.336;14.472;2023-10-19T13:04:18;24.20;55.30
63371;DHT22;72561;48.336;14.472;2023-10-19T13:09:39;24.20;55.30
63371;DHT22;72561;48.336;14.472;2023-10-19T13:13:01;24.20;55.90
63371;DHT22;72561;48.336;14.472;2023-10-19T13:19:15;24.30;55.30
63371;DHT22;72561;48.336;14.472;2023-10-19T13:22:36;24.30;56.00
63371;DHT22;72561;48.336;14.472;2023-10-19T13:25:57;24.30;55.90
63371;DHT22;72561;48.336;14.472;2023-10-19T13:29:18;24.30;55.90
63371;DHT22;72561;48.336;14.472;2023-10-19T13:32:39;24.30;55.90
63371;DHT22;72561;48.336;14.472;2023-10-19T13:36:01;24.40;56.00
63371;DHT22;72561;48.336;14.472;2023-10-19T13:39:24;24.40;56.00
63371;DHT22;72561;48.336;14.472;2023-10-19T13:42:45;24.30;56.00
63371;DHT22;72561;48.336;14.472;2023-10-19T13:47:05;24.40;55.40
63371;DHT22;72561;48.336;14.472;2023-10-19T13:50:28;24.40;56.10
63371;DHT22;72561;48.336;14.472;2023-10-19T13:54:43;24.50;55.60
63371;DHT22;72561;48.336;14.472;2023-10-19T14:00:34;24.50;55.50
63371;DHT22;72561;48.336;14.472;2023-10-19T14:04:00;24.50;56.10
63371;DHT22;72561;48.336;14.472;2023-10-19T14:07:24;24.50;56.10
63371;DHT22;72561;48.336;14.472;2023-10-19T14:10:45;24.40;56.00
63371;DHT22;72561;48.336;14.472;2023-10-19T14:14:07;24.40;56.00
63371;DHT22;72561;48.336;14.472;2023-10-19T14:18:35;24.50;55.40
63371;DHT22;72561;48.336;14.472;2023-10-19T14:21:56;24.50;56.00
63371;DHT22;72561;48.336;14.472;2023-10-19T14:25:17;24.50;56.00
63371;DHT22;72561;48.336;14.472;2023-10-19T14:28:38;24.40;56.00
63371;DHT22;72561;48.336;14.472;2023-10-19T14:32:12;24.40;55.40
63371;DHT22;72561;48.336;14.472;2023-10-19T14:35:33;24.50;56.00
63371;DHT22;72561;48.336;14.472;2023-10-19T14:38:54;24.50;56.10
63371;DHT22;72561;48.336;14.472;2023-10-19T14:44:08;24.50;55.40
63371;DHT22;72561;48.336;14.472;2023-10-19T14:47:29;24.50;56.00
63371;DHT22;72561;48.336;14.472;2023-10-19T14:50:50;24.50;56.00
63371;DHT22;72561;48.336;14.472;2023-10-19T14:54:11;24.50;56.00
63371;DHT22;72561;48.336;14.472;2023-10-19T15:01:47;24.50;55.40
63371;DHT22;72561;48.336;14.472;2023-10-19T15:05:08;24.50;56.00
63371;DHT22;72561;48.336;14.472;2023-10-19T15:08:30;24.50;56.00
63371;DHT22;72561;48.336;14.472;2023-10-19T15:11:51;24.50;56.10
63371;DHT22;72561;48.336;14.472;2023-10-19T15:15:12;24.50;56.00
63371;DHT22;72561;48.336;14.472;2023-10-19T15:20:57;24.50;55.50
63371;DHT22;72561;48.336;14.472;2023-10-19T15:24:26;24.50;56.10
63371;DHT22;72561;48.336;14.472;2023-10-19T15:30:53;24.50;55.50
63371;DHT22;72561;48.336;14.472;2023-10-19T15:34:14;24.50;56.00
63371;DHT22;72561;48.336;14.472;2023-10-19T15:38:34;24.60;55.50
63371;DHT22;72561;48.336;14.472;2023-10-19T15:43:43;24.60;55.40
63371;DHT22;72561;48.336;14.472;2023-10-19T15:49:32;24.60;55.40
63371;DHT22;72561;48.336;14.472;2023-10-19T15:52:54;24.60;55.90
63371;DHT22;72561;48.336;14.472;2023-10-19T15:57:37;24.60;55.30
63371;DHT22;72561;48.336;14.472;2023-10-19T16:02:01;24.60;55.30
63371;DHT22;72561;48.336;14.472;2023-10-19T16:05:22;24.60;55.90
63371;DHT22;72561;48.336;14.472;2023-10-19T16:08:43;24.60;55.90
63371;DHT22;72561;48.336;14.472;2023-10-19T16:12:04;24.60;55.90
63371;DHT22;72561;48.336;14.472;2023-10-19T16:15:26;24.60;56.00
63371;DHT22;72561;48.336;14.472;2023-10-19T16:19:26;24.60;55.40
63371;DHT22;72561;48.336;14.472;2023-10-19T16:22:49;24.60;56.10
63371;DHT22;72561;48.336;14.472;2023-10-19T16:26:11;24.60;56.10
63371;DHT22;72561;48.336;14.472;2023-10-19T16:33:13;24.60;55.50
63371;DHT22;72561;48.336;14.472;2023-10-19T16:36:34;24.50;56.10
63371;DHT22;72561;48.336;14.472;2023-10-19T16:39:55;24.50;56.10
63371;DHT22;72561;48.336;14.472;2023-10-19T16:43:16;24.50;56.00
63371;DHT22;72561;48.336;14.472;2023-10-19T16:46:38;24.50;56.00
63371;DHT22;72561;48.336;14.472;2023-10-19T16:50:00;24.50;56.10
63371;DHT22;72561;48.336;14.472;2023-10-19T16:53:22;24.50;56.10
63371;DHT22;72561;48.336;14.472;2023-10-19T16:57:55;24.50;55.50
63371;DHT22;72561;48.336;14.472;2023-10-19T17:01:16;24.50;56.00
63371;DHT22;72561;48.336;14.472;2023-10-19T17:04:37;24.50;56.00
63371;DHT22;72561;48.336;14.472;2023-10-19T17:07:58;24.50;56.10
63371;DHT22;72561;48.336;14.472;2023-10-19T17:11:20;24.50;56.00
63371;DHT22;72561;48.336;14.472;2023-10-19T17:14:42;24.50;56.00
63371;DHT22;72561;48.336;14.472;2023-10-19T17:18:04;24.50;56.00
63371;DHT22;72561;48.336;14.472;2023-10-19T17:21:25;24.50;56.00
63371;DHT22;72561;48.336;14.472;2023-10-19T17:25:23;24.50;55.40
63371;DHT22;72561;48.336;14.472;2023-10-19T17:28:44;24.50;56.00
63371;DHT22;72561;48.336;14.472;2023-10-19T17:32:05;24.40;55.90
63371;DHT22;72561;48.336;14.472;2023-10-19T17:35:26;24.40;55.90
63371;DHT22;72561;48.336;14.472;2023-10-19T17:38:47;24.50;56.00
63371;DHT22;72561;48.336;14.472;2023-10-19T17:42:10;24.40;56.00
63371;DHT22;72561;48.336;14.472;2023-10-19T17:45:31;24.50;56.10
63371;DHT22;72561;48.336;14.472;2023-10-19T17:48:52;24.40;56.10
63371;DHT22;72561;48.336;14.472;2023-10-19T17:52:14;24.40;56.10
63371;DHT22;72561;48.336;14.472;2023-10-19T17:59:45;24.50;55.60
63371;DHT22;72561;48.336;14.472;2023-10-19T18:03:06;24.40;56.10
63371;DHT22;72561;48.336;14.472;2023-10-19T18:06:27;24.40;56.10
63371;DHT22;72561;48.336;14.472;2023-10-19T18:09:48;24.40;56.20
63371;DHT22;72561;48.336;14.472;2023-10-19T18:14:26;24.40;55.60
63371;DHT22;72561;48.336;14.472;2023-10-19T18:20:54;24.40;55.60
63371;DHT22;72561;48.336;14.472;2023-10-19T18:24:16;24.40;56.20
63371;DHT22;72561;48.336;14.472;2023-10-19T18:27:37;24.40;56.20
63371;DHT22;72561;48.336;14.472;2023-10-19T18:31:45;24.40;55.60
63371;DHT22;72561;48.336;14.472;2023-10-19T18:35:06;24.40;56.20
63371;DHT22;72561;48.336;14.472;2023-10-19T18:38:28;24.40;56.20
63371;DHT22;72561;48.336;14.472;2023-10-19T18:44:41;24.40;55.70
63371;DHT22;72561;48.336;14.472;2023-10-19T18:48:03;24.50;56.30
63371;DHT22;72561;48.336;14.472;2023-10-19T18:51:26;24.50;56.30
63371;DHT22;72561;48.336;14.472;2023-10-19T18:54:47;24.50;56.40
63371;DHT22;72561;48.336;14.472;2023-10-19T18:58:08;24.50;56.40
63371;DHT22;72561;48.336;14.472;2023-10-19T19:04:34;24.50;55.90
63371;DHT22;72561;48.336;14.472;2023-10-19T19:07:55;24.50;56.30
63371;DHT22;72561;48.336;14.472;2023-10-19T19:11:17;24.50;56.30
63371;DHT22;72561;48.336;14.472;2023-10-19T19:14:38;24.50;56.30
63371;DHT22;72561;48.336;14.472;2023-10-19T19:17:59;24.50;56.30
63371;DHT22;72561;48.336;14.472;2023-10-19T19:21:21;24.50;56.30
63371;DHT22;72561;48.336;14.472;2023-10-19T19:24:42;24.50;56.30
63371;DHT22;72561;48.336;14.472;2023-10-19T19:28:04;24.50;56.30
63371;DHT22;72561;48.336;14.472;2023-10-19T19:31:25;24.50;56.30
63371;DHT22;72561;48.336;14.472;2023-10-19T19:34:46;24.50;56.30
63371;DHT22;72561;48.336;14.472;2023-10-19T19:38:09;24.60;56.40
63371;DHT22;72561;48.336;14.472;2023-10-19T19:41:30;24.50;56.30
63371;DHT22;72561;48.336;14.472;2023-10-19T19:44:51;24.50;56.30
63371;DHT22;72561;48.336;14.472;2023-10-19T19:48:12;24.50;56.30
63371;DHT22;72561;48.336;14.472;2023-10-19T19:51:33;24.50;56.30
63371;DHT22;72561;48.336;14.472;2023-10-19T19:54:55;24.50;56.30
63371;DHT22;72561;48.336;14.472;2023-10-19T19:58:16;24.50;56.30
63371;DHT22;72561;48.336;14.472;2023-10-19T20:01:37;24.50;56.20
63371;DHT22;72561;48.336;14.472;2023-10-19T20:04:58;24.50;56.30
63371;DHT22;72561;48.336;14.472;2023-10-19T20:08:19;24.60;56.30
63371;DHT22;72561;48.336;14.472;2023-10-19T20:11:41;24.50;56.20
63371;DHT22;72561;48.336;14.472;2023-10-19T20:15:03;24.60;56.30
63371;DHT22;72561;48.336;14.472;2023-10-19T20:18:25;24.50;56.20
63371;DHT22;72561;48.336;14.472;2023-10-19T20:21:46;24.50;56.20
63371;DHT22;72561;48.336;14.472;2023-10-19T20:25:07;24.50;56.10
63371;DHT22;72561;48.336;14.472;2023-10-19T20:28:30;24.50;56.10
63371;DHT22;72561;48.336;14.472;2023-10-19T20:31:51;24.50;56.10
63371;DHT22;72561;48.336;14.472;2023-10-19T20:35:13;24.50;56.10
63371;DHT22;72561;48.336;14.472;2023-10-19T20:38:34;24.50;56.10
63371;DHT22;72561;48.336;14.472;2023-10-19T20:41:55;24.50;56.10
63371;DHT22;72561;48.336;14.472;2023-10-19T20:47:34;24.60;55.70
63371;DHT22;72561;48.336;14.472;2023-10-19T20:52:17;24.50;55.60
63371;DHT22;72561;48.336;14.472;2023-10-19T20:55:38;24.50;56.00
63371;DHT22;72561;48.336;14.472;2023-10-19T20:58:59;24.50;56.00
63371;DHT22;72561;48.336;14.472;2023-10-19T21:04:00;24.50;55.50
63371;DHT22;72561;48.336;14.472;2023-10-19T21:07:21;24.50;56.00
63371;DHT22;72561;48.336;14.472;2023-10-19T21:10:42;24.50;56.00
63371;DHT22;72561;48.336;14.472;2023-10-19T21:14:03;24.50;56.00
63371;DHT22;72561;48.336;14.472;2023-10-19T21:17:24;24.50;56.00
63371;DHT22;72561;48.336;14.472;2023-10-19T21:23:25;24.50;55.50
63371;DHT22;72561;48.336;14.472;2023-10-19T21:26:46;24.50;55.90
63371;DHT22;72561;48.336;14.472;2023-10-19T21:35:37;24.50;55.60
63371;DHT22;72561;48.336;14.472;2023-10-19T21:42:00;24.50;55.50
63371;DHT22;72561;48.336;14.472;2023-10-19T21:45:21;24.50;56.00
63371;DHT22;72561;48.336;14.472;2023-10-19T21:48:42;24.50;56.10
63371;DHT22;72561;48.336;14.472;2023-10-19T21:52:03;24.50;56.10
63371;DHT22;72561;48.336;14.472;2023-10-19T21:58:15;24.50;55.60
63371;DHT22;72561;48.336;14.472;2023-10-19T22:01:36;24.50;56.10
63371;DHT22;72561;48.336;14.472;2023-10-19T22:04:57;24.50;56.10
63371;DHT22;72561;48.336;14.472;2023-10-19T22:08:18;24.50;56.00
63371;DHT22;72561;48.336;14.472;2023-10-19T22:11:39;24.50;56.10
63371;DHT22;72561;48.336;14.472;2023-10-19T22:15:02;24.50;56.10
63371;DHT22;72561;48.336;14.472;2023-10-19T22:20:20;24.50;55.50
63371;DHT22;72561;48.336;14.472;2023-10-19T22:23:41;24.50;56.10
63371;DHT22;72561;48.336;14.472;2023-10-19T22:27:02;24.50;56.10
63371;DHT22;72561;48.336;14.472;2023-10-19T22:30:23;24.50;56.10
63371;DHT22;72561;48.336;14.472;2023-10-19T22:33:44;24.40;56.00
63371;DHT22;72561;48.336;14.472;2023-10-19T22:37:07;24.50;56.10
63371;DHT22;72561;48.336;14.472;2023-10-19T22:40:28;24.50;56.10
63371;DHT22;72561;48.336;14.472;2023-10-19T22:43:49;24.50;56.10
63371;DHT22;72561;48.336;14.472;2023-10-19T22:47:10;24.50;56.10
63371;DHT22;72561;48.336;14.472;2023-10-19T22:50:31;24.50;56.10
63371;DHT22;72561;48.336;14.472;2023-10-19T22:54:01;24.50;55.50
63371;DHT22;72561;48.336;14.472;2023-10-19T22:57:34;24.50;55.50
63371;DHT22;72561;48.336;14.472;2023-10-19T23:02:31;24.50;55.50
63371;DHT22;72561;48.336;14.472;2023-10-19T23:05:52;24.50;56.10
63371;DHT22;72561;48.336;14.472;2023-10-19T23:09:13;24.40;56.00
63371;DHT22;72561;48.336;14.472;2023-10-19T23:12:34;24.40;56.00
63371;DHT22;72561;48.336;14.472;2023-10-19T23:15:55;24.40;56.00
63371;DHT22;72561;48.336;14.472;2023-10-19T23:19:17;24.50;56.10
63371;DHT22;72561;48.336;14.472;2023-10-19T23:22:38;24.40;55.90
63371;DHT22;72561;48.336;14.472;2023-10-19T23:25:59;24.50;56.10
63371;DHT22;72561;48.336;14.472;2023-10-19T23:29:20;24.40;56.00
63371;DHT22;72561;48.336;14.472;2023-10-19T23:32:41;24.50;56.10
63371;DHT22;72561;48.336;14.472;2023-10-19T23:36:04;24.40;56.00
63371;DHT22;72561;48.336;14.472;2023-10-19T23:39:25;24.40;56.00